Time;durP1;ratioP1;P1;durP2;ratioP2;P2;SDS_P1;SDS_P2;PMS_P1;PMS_P2;Temp;Humidity;BMP_temperature;BMP_pressure;BME280_temperature;BME280_humidity;BME280_pressure;Samples;Min_cycle;Max_cycle;Signal;HPM_P1;HPM_P2
2023/12/27 00:00:36;;;;;;;1.30;1.20;;;;;;;;;;6292637;22;20379;-88
2023/12/27 00:03:09;;;;;;;1.10;1.00;;;;;;;;;;6298835;22;20416;-86
2023/12/27 00:05:35;;;;;;;1.57;1.27;;;;;;;;;;6281825;22;20377;-86
2023/12/27 00:08:01;;;;;;;1.20;1.07;;;;;;;;;;6281556;22;21172;-88
2023/12/27 00:10:27;;;;;;;1.10;1.00;;;;;;;;;;6280512;22;21070;-89
2023/12/27 00:12:54;;;;;;;3.97;1.20;;;;;;;;;;6279276;22;20376;-88
2023/12/27 00:15:20;;;;;;;1.57;1.47;;;;;;;;;;6280127;22;20815;-87
2023/12/27 00:17:51;;;;;;;1.43;1.13;;;;;;;;;;6281246;22;20887;-88
2023/12/27 00:20:17;;;;;;;5.90;1.50;;;;;;;;;;6281569;22;20419;-88
2023/12/27 00:22:43;;;;;;;1.93;1.43;;;;;;;;;;6278413;22;20860;-86
2023/12/27 00:25:16;;;;;;;2.20;1.07;;;;;;;;;;6278451;22;20377;-87
2023/12/27 00:27:42;;;;;;;3.87;1.20;;;;;;;;;;6280216;22;20366;-86
2023/12/27 00:30:08;;;;;;;1.23;1.10;;;;;;;;;;6279325;22;20815;-86
2023/12/27 00:32:34;;;;;;;0.90;0.80;;;;;;;;;;6281174;22;20386;-88
2023/12/27 00:35:00;;;;;;;2.63;1.30;;;;;;;;;;6279827;22;20412;-86
2023/12/27 00:37:26;;;;;;;2.20;1.17;;;;;;;;;;6281675;22;20415;-87
2023/12/27 00:39:52;;;;;;;1.17;1.00;;;;;;;;;;6279493;22;20708;-86
2023/12/27 00:42:19;;;;;;;1.70;1.03;;;;;;;;;;6281088;22;20459;-86
2023/12/27 00:44:45;;;;;;;5.27;1.30;;;;;;;;;;6279554;22;20454;-87
2023/12/27 00:47:12;;;;;;;5.80;1.47;;;;;;;;;;6280460;22;20466;-86
2023/12/27 00:49:37;;;;;;;1.80;1.20;;;;;;;;;;6278781;22;20869;-87
2023/12/27 00:52:04;;;;;;;2.20;1.07;;;;;;;;;;6306278;22;20364;-85
2023/12/27 00:54:30;;;;;;;1.67;1.23;;;;;;;;;;6282111;22;20391;-87
2023/12/27 00:56:56;;;;;;;4.40;1.20;;;;;;;;;;6282280;22;20377;-88
2023/12/27 00:59:22;;;;;;;7.00;1.60;;;;;;;;;;6280458;22;20392;-87
2023/12/27 01:01:48;;;;;;;3.37;1.30;;;;;;;;;;6280572;22;20963;-88
2023/12/27 01:04:14;;;;;;;1.50;1.40;;;;;;;;;;6281112;22;20426;-88
2023/12/27 01:06:40;;;;;;;1.20;0.87;;;;;;;;;;6283286;22;20407;-87
2023/12/27 01:09:07;;;;;;;1.73;1.20;;;;;;;;;;6282552;22;20429;-87
2023/12/27 01:11:33;;;;;;;2.50;1.13;;;;;;;;;;6306787;22;20429;-87
2023/12/27 01:13:59;;;;;;;1.60;1.30;;;;;;;;;;6279489;22;20377;-88
2023/12/27 01:16:25;;;;;;;1.63;1.00;;;;;;;;;;6311256;22;20403;-89
2023/12/27 01:18:51;;;;;;;3.03;0.90;;;;;;;;;;6306920;22;20360;-87
2023/12/27 01:21:17;;;;;;;5.87;1.27;;;;;;;;;;6283973;22;20454;-87
2023/12/27 01:23:44;;;;;;;3.70;1.40;;;;;;;;;;6282343;22;20945;-87
2023/12/27 01:26:10;;;;;;;2.83;1.13;;;;;;;;;;6283059;22;20481;-88
2023/12/27 01:28:36;;;;;;;3.10;1.50;;;;;;;;;;6282549;22;20376;-87
2023/12/27 01:31:02;;;;;;;2.77;1.37;;;;;;;;;;6283566;22;20795;-88
2023/12/27 01:33:28;;;;;;;1.23;1.10;;;;;;;;;;6283492;22;20444;-89
2023/12/27 01:35:54;;;;;;;2.40;1.20;;;;;;;;;;6280278;22;20380;-86
2023/12/27 01:38:20;;;;;;;3.80;1.50;;;;;;;;;;6281855;22;20391;-86
2023/12/27 01:40:49;;;;;;;2.40;1.17;;;;;;;;;;6283123;22;20465;-86
2023/12/27 01:43:15;;;;;;;4.23;1.20;;;;;;;;;;6280681;22;20508;-86
2023/12/27 01:45:41;;;;;;;1.93;1.30;;;;;;;;;;6308227;22;20374;-87
2023/12/27 01:48:07;;;;;;;2.40;1.27;;;;;;;;;;6283440;22;20404;-88
2023/12/27 01:50:34;;;;;;;2.00;1.30;;;;;;;;;;6283064;22;20969;-87
2023/12/27 01:53:00;;;;;;;1.00;0.90;;;;;;;;;;6282710;22;20388;-87
2023/12/27 01:55:26;;;;;;;3.37;1.50;;;;;;;;;;6281955;22;20376;-87
2023/12/27 01:57:51;;;;;;;5.63;1.67;;;;;;;;;;6283419;22;20380;-87
2023/12/27 02:00:18;;;;;;;4.03;2.00;;;;;;;;;;6282112;22;20372;-87
2023/12/27 02:02:44;;;;;;;2.13;1.53;;;;;;;;;;6282871;22;20968;-86
2023/12/27 02:05:10;;;;;;;3.50;1.57;;;;;;;;;;6285012;22;20394;-86
2023/12/27 02:07:36;;;;;;;6.67;1.47;;;;;;;;;;6308506;22;20371;-87
2023/12/27 02:10:02;;;;;;;2.80;1.63;;;;;;;;;;6282363;22;20373;-86
2023/12/27 02:12:29;;;;;;;2.23;1.20;;;;;;;;;;6283280;22;20369;-86
2023/12/27 02:14:56;;;;;;;1.70;1.60;;;;;;;;;;6310394;22;20368;-88
2023/12/27 02:17:23;;;;;;;2.20;1.37;;;;;;;;;;6309143;22;20379;-88
2023/12/27 02:19:49;;;;;;;2.50;1.33;;;;;;;;;;6283297;22;20724;-90
2023/12/27 02:22:22;;;;;;;0.80;0.80;;;;;;;;;;6283623;22;20782;-87
2023/12/27 02:24:49;;;;;;;1.73;1.33;;;;;;;;;;6285781;22;20883;-88
2023/12/27 02:27:15;;;;;;;3.30;1.47;;;;;;;;;;6282655;22;20802;-88
2023/12/27 02:29:41;;;;;;;3.53;1.30;;;;;;;;;;6307395;22;20360;-88
2023/12/27 02:32:08;;;;;;;1.50;1.10;;;;;;;;;;6306282;22;20667;-87
2023/12/27 02:34:34;;;;;;;1.57;1.37;;;;;;;;;;6281226;22;20380;-87
2023/12/27 02:37:00;;;;;;;1.90;1.50;;;;;;;;;;6305211;22;20384;-87
2023/12/27 02:39:26;;;;;;;1.63;1.07;;;;;;;;;;6280383;22;20846;-87
2023/12/27 02:41:52;;;;;;;1.37;1.20;;;;;;;;;;6280727;22;20790;-87
2023/12/27 02:44:18;;;;;;;3.00;1.03;;;;;;;;;;6281726;22;20487;-87
2023/12/27 02:46:44;;;;;;;1.97;1.30;;;;;;;;;;6281198;22;20456;-87
2023/12/27 02:49:10;;;;;;;1.33;1.23;;;;;;;;;;6307102;22;20831;-87
2023/12/27 02:51:36;;;;;;;1.67;1.20;;;;;;;;;;6281620;22;20434;-88
2023/12/27 02:54:02;;;;;;;3.20;1.50;;;;;;;;;;6281961;22;20380;-88
2023/12/27 02:56:28;;;;;;;1.93;1.17;;;;;;;;;;6280750;22;20379;-87
2023/12/27 02:58:54;;;;;;;3.77;1.23;;;;;;;;;;6283098;22;20383;-87
2023/12/27 03:01:20;;;;;;;1.40;1.30;;;;;;;;;;6281450;22;20840;-87
2023/12/27 03:03:46;;;;;;;1.10;0.93;;;;;;;;;;6281249;22;20419;-88
2023/12/27 03:06:12;;;;;;;1.80;1.20;;;;;;;;;;6281557;22;20371;-89
2023/12/27 03:08:38;;;;;;;1.57;1.30;;;;;;;;;;6280459;22;20691;-88
2023/12/27 03:11:06;;;;;;;3.70;1.20;;;;;;;;;;6280657;22;20384;-87
2023/12/27 03:13:32;;;;;;;2.53;1.60;;;;;;;;;;6281190;22;20847;-89
2023/12/27 03:15:58;;;;;;;2.00;1.47;;;;;;;;;;6281808;22;20719;-87
2023/12/27 03:18:24;;;;;;;2.53;1.40;;;;;;;;;;6280999;22;20455;-87
2023/12/27 03:20:50;;;;;;;1.93;1.60;;;;;;;;;;6280285;22;20384;-87
2023/12/27 03:23:16;;;;;;;2.50;1.23;;;;;;;;;;6280654;22;20919;-88
2023/12/27 03:25:42;;;;;;;1.77;1.00;;;;;;;;;;6280361;22;20399;-88
2023/12/27 03:28:08;;;;;;;1.57;1.33;;;;;;;;;;6281078;22;20383;-85
2023/12/27 03:30:34;;;;;;;3.40;1.20;;;;;;;;;;6307581;22;20361;-87
2023/12/27 03:33:00;;;;;;;1.83;1.30;;;;;;;;;;6282154;22;20410;-88
2023/12/27 03:35:26;;;;;;;1.63;1.53;;;;;;;;;;6281609;22;20400;-87
2023/12/27 03:37:52;;;;;;;1.60;1.20;;;;;;;;;;6306665;22;20356;-87
2023/12/27 03:40:18;;;;;;;2.40;1.40;;;;;;;;;;6280906;22;20409;-88
2023/12/27 03:42:44;;;;;;;1.37;1.00;;;;;;;;;;6306851;22;20388;-87
2023/12/27 03:45:10;;;;;;;1.50;1.03;;;;;;;;;;6307166;22;20416;-87
2023/12/27 03:47:36;;;;;;;1.90;1.27;;;;;;;;;;6280160;22;20368;-88
2023/12/27 03:50:02;;;;;;;1.80;1.10;;;;;;;;;;6280717;22;20373;-87
2023/12/27 03:52:29;;;;;;;1.43;1.03;;;;;;;;;;6280392;22;20368;-88
2023/12/27 03:54:55;;;;;;;4.10;1.30;;;;;;;;;;6281054;22;20376;-88
2023/12/27 03:57:21;;;;;;;1.20;1.10;;;;;;;;;;6280372;22;20770;-87
2023/12/27 03:59:47;;;;;;;3.33;1.37;;;;;;;;;;6279912;22;20377;-87
2023/12/27 04:02:13;;;;;;;1.40;1.10;;;;;;;;;;6281383;22;20380;-87
2023/12/27 04:04:39;;;;;;;2.90;1.83;;;;;;;;;;6282564;22;20786;-87
2023/12/27 04:07:05;;;;;;;2.13;1.27;;;;;;;;;;6281454;22;20381;-87
2023/12/27 04:09:31;;;;;;;2.23;1.50;;;;;;;;;;6282581;22;20444;-87
2023/12/27 04:11:57;;;;;;;1.73;1.37;;;;;;;;;;6281115;22;20369;-88
2023/12/27 04:14:23;;;;;;;1.27;1.17;;;;;;;;;;6308390;22;20368;-87
2023/12/27 04:16:49;;;;;;;1.30;1.20;;;;;;;;;;6280817;22;20376;-88
2023/12/27 04:19:15;;;;;;;2.40;1.30;;;;;;;;;;6280133;22;20377;-86
2023/12/27 04:21:42;;;;;;;1.20;1.10;;;;;;;;;;6306422;22;20393;-87
2023/12/27 04:24:09;;;;;;;1.17;1.07;;;;;;;;;;6306551;22;20736;-87
2023/12/27 04:26:37;;;;;;;4.90;1.27;;;;;;;;;;6305594;22;20380;-88
2023/12/27 04:29:03;;;;;;;1.27;1.17;;;;;;;;;;6280067;22;20368;-87
2023/12/27 04:31:29;;;;;;;3.70;1.40;;;;;;;;;;6281156;22;20373;-87
2023/12/27 04:33:55;;;;;;;1.73;1.20;;;;;;;;;;6307269;22;20745;-88
2023/12/27 04:36:21;;;;;;;1.57;1.47;;;;;;;;;;6279214;22;20446;-88
2023/12/27 04:38:47;;;;;;;1.43;0.90;;;;;;;;;;6279922;22;20419;-88
2023/12/27 04:41:13;;;;;;;2.30;1.60;;;;;;;;;;6280387;22;20384;-88
2023/12/27 04:43:39;;;;;;;1.37;1.27;;;;;;;;;;6280767;22;20416;-89
2023/12/27 04:46:08;;;;;;;1.07;0.83;;;;;;;;;;6280827;22;20373;-87
2023/12/27 04:48:34;;;;;;;1.70;1.37;;;;;;;;;;6281240;22;20459;-88
2023/12/27 04:51:00;;;;;;;4.77;1.60;;;;;;;;;;6281295;22;20387;-88
2023/12/27 04:53:26;;;;;;;2.73;1.03;;;;;;;;;;6280310;22;20381;-87
2023/12/27 04:55:52;;;;;;;1.50;1.40;;;;;;;;;;6306291;22;20410;-87
2023/12/27 04:58:18;;;;;;;2.20;1.53;;;;;;;;;;6280574;22;20919;-87
2023/12/27 05:00:44;;;;;;;3.13;2.07;;;;;;;;;;6280686;22;20712;-87
2023/12/27 05:03:10;;;;;;;1.63;1.17;;;;;;;;;;6305790;22;20420;-88
2023/12/27 05:05:36;;;;;;;4.10;1.30;;;;;;;;;;6280608;22;20452;-88
2023/12/27 05:08:03;;;;;;;4.10;2.00;;;;;;;;;;6281271;22;20373;-87
2023/12/27 05:10:28;;;;;;;1.97;1.77;;;;;;;;;;6282770;22;20372;-87
2023/12/27 05:12:54;;;;;;;2.83;1.20;;;;;;;;;;6280022;22;20471;-87
2023/12/27 05:15:20;;;;;;;3.60;2.07;;;;;;;;;;6281274;22;20380;-87
2023/12/27 05:17:46;;;;;;;3.07;1.30;;;;;;;;;;6279397;22;20373;-87
2023/12/27 05:20:13;;;;;;;1.50;1.00;;;;;;;;;;6306631;22;20369;-88
2023/12/27 05:22:40;;;;;;;6.90;1.30;;;;;;;;;;6279334;22;20369;-87
2023/12/27 05:25:09;;;;;;;1.30;1.20;;;;;;;;;;6279946;22;20420;-89
2023/12/27 05:27:35;;;;;;;2.73;1.50;;;;;;;;;;6278998;22;20437;-88
2023/12/27 05:30:02;;;;;;;1.97;1.10;;;;;;;;;;6279589;22;20408;-88
2023/12/27 05:32:27;;;;;;;2.80;1.73;;;;;;;;;;6305459;22;20392;-88
2023/12/27 05:34:54;;;;;;;1.53;1.33;;;;;;;;;;6280598;22;20407;-87
2023/12/27 05:37:20;;;;;;;2.20;1.20;;;;;;;;;;6280517;22;20368;-87
2023/12/27 05:39:46;;;;;;;2.60;1.37;;;;;;;;;;6281209;22;20380;-89
2023/12/27 05:42:15;;;;;;;1.70;1.23;;;;;;;;;;6280354;22;20425;-87
2023/12/27 05:44:40;;;;;;;2.53;1.53;;;;;;;;;;6280946;22;20503;-88
2023/12/27 05:47:06;;;;;;;1.23;1.13;;;;;;;;;;6279770;22;20445;-88
2023/12/27 05:49:33;;;;;;;3.60;1.77;;;;;;;;;;6281346;22;20373;-88
2023/12/27 05:51:59;;;;;;;4.23;2.07;;;;;;;;;;6282499;22;20364;-88
2023/12/27 05:54:26;;;;;;;3.50;1.63;;;;;;;;;;6283019;22;20387;-87
2023/12/27 05:56:53;;;;;;;1.83;1.23;;;;;;;;;;6282109;22;20381;-88
2023/12/27 05:59:19;;;;;;;2.93;1.20;;;;;;;;;;6280802;22;20471;-89
2023/12/27 06:01:48;;;;;;;2.10;1.87;;;;;;;;;;6309485;22;20372;-88
2023/12/27 06:04:17;;;;;;;4.37;1.60;;;;;;;;;;6282008;22;20416;-88
2023/12/27 06:06:44;;;;;;;1.23;1.13;;;;;;;;;;6281896;22;20472;-88
2023/12/27 06:09:10;;;;;;;4.30;1.70;;;;;;;;;;6281913;22;20390;-87
2023/12/27 06:11:37;;;;;;;3.50;2.60;;;;;;;;;;6310604;22;20851;-87
2023/12/27 06:14:03;;;;;;;7.03;3.87;;;;;;;;;;6282130;22;20376;-88
2023/12/27 06:16:29;;;;;;;2.10;1.60;;;;;;;;;;6281786;22;20477;-88
2023/12/27 06:18:57;;;;;;;4.43;1.60;;;;;;;;;;6280653;22;20407;-88
2023/12/27 06:21:23;;;;;;;2.60;1.37;;;;;;;;;;6282882;22;20387;-87
2023/12/27 06:23:49;;;;;;;4.13;2.93;;;;;;;;;;6281842;22;20408;-88
2023/12/27 06:26:15;;;;;;;3.00;2.07;;;;;;;;;;6281301;22;20408;-88
2023/12/27 06:28:42;;;;;;;3.30;1.67;;;;;;;;;;6282472;22;20383;-88
2023/12/27 06:31:08;;;;;;;4.10;1.93;;;;;;;;;;6282756;22;21044;-88
2023/12/27 06:33:34;;;;;;;2.47;2.27;;;;;;;;;;6306965;22;20367;-87
2023/12/27 06:36:00;;;;;;;5.63;3.33;;;;;;;;;;6308405;22;20376;-88
2023/12/27 06:38:26;;;;;;;3.97;2.40;;;;;;;;;;6281599;22;21024;-89
2023/12/27 06:40:52;;;;;;;5.43;1.80;;;;;;;;;;6280650;22;20380;-87
2023/12/27 06:43:19;;;;;;;1.80;1.60;;;;;;;;;;6281478;22;20973;-87
2023/12/27 06:45:45;;;;;;;3.67;1.70;;;;;;;;;;6282715;22;20826;-87
2023/12/27 06:48:11;;;;;;;2.13;1.70;;;;;;;;;;6281050;22;20384;-87
2023/12/27 06:50:37;;;;;;;3.87;2.17;;;;;;;;;;6307445;22;20426;-88
2023/12/27 06:53:03;;;;;;;3.43;1.60;;;;;;;;;;6306879;22;20357;-88
2023/12/27 06:55:30;;;;;;;2.33;2.13;;;;;;;;;;6307276;22;20697;-88
2023/12/27 06:57:56;;;;;;;1.53;1.40;;;;;;;;;;6281206;22;20376;-87
2023/12/27 07:00:22;;;;;;;2.27;2.07;;;;;;;;;;6280212;22;20383;-88
2023/12/27 07:02:48;;;;;;;3.43;2.07;;;;;;;;;;6307888;22;20376;-89
2023/12/27 07:05:14;;;;;;;8.33;2.73;;;;;;;;;;6282892;22;20426;-89
2023/12/27 07:07:40;;;;;;;3.57;2.07;;;;;;;;;;6282589;22;20377;-89
2023/12/27 07:10:06;;;;;;;2.37;1.60;;;;;;;;;;6281783;22;20384;-89
2023/12/27 07:12:32;;;;;;;2.67;2.20;;;;;;;;;;6281589;22;20384;-89
2023/12/27 07:14:58;;;;;;;5.30;2.00;;;;;;;;;;6307621;22;20394;-89
2023/12/27 07:17:24;;;;;;;3.20;1.80;;;;;;;;;;6307565;22;20376;-89
2023/12/27 07:19:50;;;;;;;4.60;1.90;;;;;;;;;;6281661;22;20866;-89
2023/12/27 07:22:17;;;;;;;4.33;2.10;;;;;;;;;;6283105;22;21227;-88
2023/12/27 07:24:43;;;;;;;4.20;2.27;;;;;;;;;;6281152;22;20474;-88
2023/12/27 07:27:09;;;;;;;3.97;2.27;;;;;;;;;;6281618;22;20404;-88
2023/12/27 07:29:37;;;;;;;2.60;2.40;;;;;;;;;;6282667;22;20913;-89
2023/12/27 07:32:05;;;;;;;2.30;1.70;;;;;;;;;;6309000;22;20443;-88
2023/12/27 07:34:32;;;;;;;4.10;2.13;;;;;;;;;;6309725;22;20369;-90
2023/12/27 07:36:58;;;;;;;4.23;2.97;;;;;;;;;;6282801;22;20388;-89
2023/12/27 07:39:24;;;;;;;5.90;2.57;;;;;;;;;;6283242;22;20441;-94
2023/12/27 07:41:50;;;;;;;4.00;2.77;;;;;;;;;;6281699;22;20380;-90
2023/12/27 07:44:16;;;;;;;3.17;2.87;;;;;;;;;;6281354;22;20492;-90
2023/12/27 07:46:43;;;;;;;4.37;2.20;;;;;;;;;;6281826;22;20704;-88
2023/12/27 07:49:09;;;;;;;4.53;2.93;;;;;;;;;;6304504;22;20368;-89
2023/12/27 07:51:35;;;;;;;3.13;2.70;;;;;;;;;;6281002;22;20862;-88
2023/12/27 07:54:01;;;;;;;8.13;2.73;;;;;;;;;;6308934;22;20373;-88
2023/12/27 07:56:27;;;;;;;2.90;2.00;;;;;;;;;;6283370;22;20892;-88
2023/12/27 07:58:53;;;;;;;2.90;2.30;;;;;;;;;;6281737;22;20745;-88
2023/12/27 08:01:20;;;;;;;2.00;1.83;;;;;;;;;;6283784;22;20525;-88
2023/12/27 08:03:46;;;;;;;3.63;2.23;;;;;;;;;;6308614;22;20412;-88
2023/12/27 08:06:12;;;;;;;7.27;2.43;;;;;;;;;;6283722;22;20388;-88
2023/12/27 08:08:38;;;;;;;9.93;2.87;;;;;;;;;;6282231;22;20415;-88
2023/12/27 08:11:04;;;;;;;2.80;2.60;;;;;;;;;;6282735;22;20387;-88
2023/12/27 08:13:33;;;;;;;7.33;3.57;;;;;;;;;;6282289;22;20384;-88
2023/12/27 08:15:59;;;;;;;7.43;2.77;;;;;;;;;;6283603;22;20433;-90
2023/12/27 08:18:25;;;;;;;6.57;3.97;;;;;;;;;;6283827;22;20364;-88
2023/12/27 08:20:51;;;;;;;2.43;2.20;;;;;;;;;;6282626;22;20377;-89
2023/12/27 08:23:17;;;;;;;3.13;2.73;;;;;;;;;;6281666;22;20420;-88
2023/12/27 08:25:44;;;;;;;4.53;3.37;;;;;;;;;;6281809;22;20392;-88
2023/12/27 08:28:10;;;;;;;2.90;2.70;;;;;;;;;;6283388;22;20387;-88
2023/12/27 08:30:37;;;;;;;4.17;2.50;;;;;;;;;;6283305;22;20385;-89
2023/12/27 08:33:06;;;;;;;6.03;3.50;;;;;;;;;;6283313;22;20486;-88
2023/12/27 08:35:32;;;;;;;4.13;2.80;;;;;;;;;;6285045;22;20381;-88
2023/12/27 08:37:58;;;;;;;3.07;2.33;;;;;;;;;;6285556;22;20377;-91
2023/12/27 08:40:24;;;;;;;9.17;4.43;;;;;;;;;;6281919;22;20377;-90
2023/12/27 08:42:50;;;;;;;3.60;2.80;;;;;;;;;;6282650;22;20459;-89
2023/12/27 08:45:16;;;;;;;4.03;3.30;;;;;;;;;;6283694;22;20485;-89
2023/12/27 08:47:43;;;;;;;4.93;3.37;;;;;;;;;;6283740;22;20410;-87
2023/12/27 08:50:10;;;;;;;2.90;2.60;;;;;;;;;;6283085;22;20388;-88
2023/12/27 08:52:36;;;;;;;5.00;4.00;;;;;;;;;;6285575;22;20388;-87
2023/12/27 08:55:03;;;;;;;3.57;2.80;;;;;;;;;;6281648;22;20388;-88
2023/12/27 08:57:29;;;;;;;4.40;2.70;;;;;;;;;;6282874;22;20470;-88
2023/12/27 08:59:55;;;;;;;3.07;2.47;;;;;;;;;;6282504;22;20966;-87
2023/12/27 09:02:23;;;;;;;8.53;2.50;;;;;;;;;;6281819;22;20412;-89
2023/12/27 09:04:49;;;;;;;3.00;2.30;;;;;;;;;;6280191;22;20983;-88
2023/12/27 09:07:15;;;;;;;5.47;3.30;;;;;;;;;;6282542;22;20925;-88
2023/12/27 09:09:41;;;;;;;2.40;2.20;;;;;;;;;;6280143;22;20380;-88
2023/12/27 09:12:07;;;;;;;3.03;2.30;;;;;;;;;;6282418;22;20386;-88
2023/12/27 09:14:33;;;;;;;3.30;2.30;;;;;;;;;;6281010;22;20387;-88
2023/12/27 09:16:58;;;;;;;5.83;2.57;;;;;;;;;;6282847;22;21052;-89
2023/12/27 09:19:26;;;;;;;5.27;2.63;;;;;;;;;;6306488;22;20388;-88
2023/12/27 09:21:51;;;;;;;3.03;2.33;;;;;;;;;;6307205;22;20376;-89
2023/12/27 09:24:18;;;;;;;4.80;2.73;;;;;;;;;;6308890;22;20450;-90
2023/12/27 09:26:44;;;;;;;3.87;2.70;;;;;;;;;;6285510;22;20400;-90
2023/12/27 09:29:10;;;;;;;3.97;2.50;;;;;;;;;;6283367;22;20463;-89
2023/12/27 09:31:36;;;;;;;5.00;3.83;;;;;;;;;;6284468;22;20383;-88
2023/12/27 09:34:02;;;;;;;2.73;2.50;;;;;;;;;;6283807;22;20410;-89
2023/12/27 09:36:29;;;;;;;3.20;2.50;;;;;;;;;;6279051;22;20392;-90
2023/12/27 09:38:55;;;;;;;5.73;2.80;;;;;;;;;;6283196;22;20376;-88
2023/12/27 09:41:21;;;;;;;5.80;2.70;;;;;;;;;;6283000;22;20444;-89
2023/12/27 09:43:47;;;;;;;3.13;2.67;;;;;;;;;;6282606;22;20600;-88
2023/12/27 09:46:16;;;;;;;7.10;3.40;;;;;;;;;;6281028;22;20380;-88
2023/12/27 09:48:42;;;;;;;5.33;2.73;;;;;;;;;;6307384;22;20805;-87
2023/12/27 09:51:08;;;;;;;4.53;2.43;;;;;;;;;;6278949;22;20375;-88
2023/12/27 09:53:34;;;;;;;7.20;3.67;;;;;;;;;;6280518;22;20461;-88
2023/12/27 09:56:00;;;;;;;4.03;2.47;;;;;;;;;;6280648;22;20380;-88
2023/12/27 09:58:29;;;;;;;5.17;2.80;;;;;;;;;;6307483;22;20514;-88
2023/12/27 10:01:02;;;;;;;4.40;2.53;;;;;;;;;;6280083;22;20414;-88
2023/12/27 10:03:38;;;;;;;5.23;2.50;;;;;;;;;;6279275;22;20897;-88
2023/12/27 10:06:22;;;;;;;2.93;2.53;;;;;;;;;;6280030;22;20453;-88
2023/12/27 10:08:48;;;;;;;5.20;2.10;;;;;;;;;;6305292;22;20417;-88
2023/12/27 10:11:18;;;;;;;3.23;1.57;;;;;;;;;;6280323;22;20382;-88
2023/12/27 10:13:44;;;;;;;2.57;1.73;;;;;;;;;;6282797;22;20406;-88
2023/12/27 10:16:13;;;;;;;3.33;2.20;;;;;;;;;;6280351;22;20870;-88
2023/12/27 10:18:39;;;;;;;2.10;1.50;;;;;;;;;;6280689;22;20380;-88
2023/12/27 10:21:05;;;;;;;1.90;1.80;;;;;;;;;;6282115;22;20384;-89
2023/12/27 10:23:34;;;;;;;3.37;2.00;;;;;;;;;;6280989;22;20645;-90
2023/12/27 10:26:00;;;;;;;2.90;1.50;;;;;;;;;;6280781;22;20457;-90
2023/12/27 10:28:29;;;;;;;3.83;1.80;;;;;;;;;;6280948;22;20361;-88
2023/12/27 10:30:55;;;;;;;2.10;1.43;;;;;;;;;;6281356;22;21064;-88
2023/12/27 10:33:21;;;;;;;4.87;2.10;;;;;;;;;;6280520;22;21076;-89
2023/12/27 10:35:47;;;;;;;2.20;2.00;;;;;;;;;;6279672;22;21231;-87
2023/12/27 10:38:13;;;;;;;2.07;1.87;;;;;;;;;;6283158;22;20376;-88
2023/12/27 10:40:40;;;;;;;1.70;1.60;;;;;;;;;;6279110;22;20380;-88
2023/12/27 10:43:06;;;;;;;2.50;1.83;;;;;;;;;;6279534;22;20407;-89
2023/12/27 10:45:33;;;;;;;4.53;1.70;;;;;;;;;;6278266;22;20404;-89
2023/12/27 10:47:59;;;;;;;2.40;1.90;;;;;;;;;;6281154;22;20402;-87
2023/12/27 10:50:26;;;;;;;1.43;1.30;;;;;;;;;;6277402;22;20380;-87
2023/12/27 10:53:00;;;;;;;2.90;1.70;;;;;;;;;;6280445;22;20469;-87
2023/12/27 10:55:28;;;;;;;2.50;1.40;;;;;;;;;;6280128;22;20384;-87
2023/12/27 10:57:55;;;;;;;4.73;3.10;;;;;;;;;;6281779;22;20372;-87
2023/12/27 11:00:22;;;;;;;5.40;1.90;;;;;;;;;;6280853;22;21030;-88
2023/12/27 11:02:48;;;;;;;2.50;2.30;;;;;;;;;;6308053;22;20891;-88
2023/12/27 11:05:15;;;;;;;2.37;1.83;;;;;;;;;;6279708;22;20423;-88
2023/12/27 11:07:43;;;;;;;1.80;1.40;;;;;;;;;;6280858;22;20380;-88
2023/12/27 11:10:10;;;;;;;2.37;1.87;;;;;;;;;;6305631;22;20426;-88
2023/12/27 11:12:36;;;;;;;2.00;1.80;;;;;;;;;;6281594;22;20379;-87
2023/12/27 11:15:02;;;;;;;4.70;1.93;;;;;;;;;;6278991;22;20931;-89
2023/12/27 11:17:29;;;;;;;1.63;1.40;;;;;;;;;;6305387;22;20537;-88
2023/12/27 11:19:55;;;;;;;1.73;1.40;;;;;;;;;;6280163;22;20377;-88
2023/12/27 11:22:21;;;;;;;2.43;1.50;;;;;;;;;;6308107;22;20395;-87
2023/12/27 11:24:47;;;;;;;2.13;1.40;;;;;;;;;;6306216;22;20440;-88
2023/12/27 11:27:17;;;;;;;2.33;1.57;;;;;;;;;;6280824;22;20396;-87
2023/12/27 11:29:46;;;;;;;1.33;1.23;;;;;;;;;;6278942;22;20379;-87
2023/12/27 11:32:12;;;;;;;2.47;1.30;;;;;;;;;;6282009;22;20376;-88
2023/12/27 11:34:38;;;;;;;3.33;2.13;;;;;;;;;;6278948;22;20391;-88
2023/12/27 11:37:04;;;;;;;4.03;1.70;;;;;;;;;;6283908;22;20384;-88
2023/12/27 11:39:30;;;;;;;3.43;2.30;;;;;;;;;;6280921;22;20395;-88
2023/12/27 11:41:58;;;;;;;3.73;1.50;;;;;;;;;;6282603;22;20426;-88
2023/12/27 11:44:24;;;;;;;1.80;1.37;;;;;;;;;;6282630;22;20511;-88
2023/12/27 11:46:50;;;;;;;1.67;1.10;;;;;;;;;;6282646;22;20705;-87
2023/12/27 11:49:19;;;;;;;2.23;1.90;;;;;;;;;;6280938;22;20448;-88
2023/12/27 11:51:45;;;;;;;3.07;2.03;;;;;;;;;;6308414;22;20361;-89
2023/12/27 11:54:20;;;;;;;2.03;1.47;;;;;;;;;;6282918;22;21127;-88
2023/12/27 11:56:46;;;;;;;1.50;1.40;;;;;;;;;;6281619;22;20363;-87
2023/12/27 11:59:12;;;;;;;1.53;1.37;;;;;;;;;;6280871;22;20433;-88
2023/12/27 12:01:38;;;;;;;1.53;1.37;;;;;;;;;;6281123;22;20383;-87
2023/12/27 12:04:23;;;;;;;1.60;1.30;;;;;;;;;;6281478;22;20431;-88
2023/12/27 12:06:49;;;;;;;1.40;1.30;;;;;;;;;;6307716;22;20372;-86
2023/12/27 12:09:15;;;;;;;4.17;1.97;;;;;;;;;;6305474;22;20361;-88
2023/12/27 12:11:44;;;;;;;2.67;1.70;;;;;;;;;;6275547;22;20408;-87
2023/12/27 12:14:10;;;;;;;1.93;1.47;;;;;;;;;;6304998;22;20360;-88
2023/12/27 12:16:36;;;;;;;4.40;1.30;;;;;;;;;;6305250;22;20360;-90
2023/12/27 12:19:08;;;;;;;6.80;2.10;;;;;;;;;;6304148;22;20759;-88
2023/12/27 12:21:40;;;;;;;2.53;1.80;;;;;;;;;;6281243;22;20442;-88
2023/12/27 12:24:09;;;;;;;2.30;1.73;;;;;;;;;;6278876;22;20420;-87
2023/12/27 12:26:36;;;;;;;1.47;1.20;;;;;;;;;;6280522;22;20404;-88
2023/12/27 12:29:03;;;;;;;2.10;1.43;;;;;;;;;;6279620;22;20376;-89
2023/12/27 12:31:32;;;;;;;3.80;1.90;;;;;;;;;;6283076;22;20434;-87
2023/12/27 12:33:58;;;;;;;1.40;1.30;;;;;;;;;;6307749;22;20407;-86
2023/12/27 12:36:24;;;;;;;2.20;1.40;;;;;;;;;;6283972;22;20489;-86
2023/12/27 12:38:50;;;;;;;1.30;1.07;;;;;;;;;;6279242;22;20380;-86
2023/12/27 12:41:16;;;;;;;1.57;1.20;;;;;;;;;;6306126;22;20373;-87
2023/12/27 12:43:43;;;;;;;1.70;1.60;;;;;;;;;;6278049;22;20438;-88
2023/12/27 12:46:13;;;;;;;1.43;1.27;;;;;;;;;;6279166;22;20463;-86
2023/12/27 12:48:39;;;;;;;1.80;1.47;;;;;;;;;;6275182;22;20380;-89
2023/12/27 12:51:19;;;;;;;1.70;1.40;;;;;;;;;;6276370;22;20385;-87
2023/12/27 12:53:45;;;;;;;5.87;2.43;;;;;;;;;;6303367;22;20871;-88
2023/12/27 12:56:11;;;;;;;1.93;1.20;;;;;;;;;;6279368;22;20383;-86
2023/12/27 12:58:37;;;;;;;3.10;1.87;;;;;;;;;;6280297;22;20902;-87
2023/12/27 13:01:03;;;;;;;3.23;2.17;;;;;;;;;;6282286;22;20472;-87
2023/12/27 13:03:29;;;;;;;2.87;1.70;;;;;;;;;;6284510;22;20466;-89
2023/12/27 13:05:56;;;;;;;2.33;1.70;;;;;;;;;;6285238;22;20441;-89
2023/12/27 13:08:23;;;;;;;3.30;1.60;;;;;;;;;;6283859;22;20371;-87
2023/12/27 13:10:49;;;;;;;3.53;1.37;;;;;;;;;;6310655;22;20357;-88
2023/12/27 13:13:15;;;;;;;2.40;1.60;;;;;;;;;;6281426;22;20396;-89
2023/12/27 13:15:42;;;;;;;2.80;1.60;;;;;;;;;;6283164;22;20146;-87
2023/12/27 13:18:08;;;;;;;2.63;1.97;;;;;;;;;;6282762;22;20764;-88
2023/12/27 13:20:34;;;;;;;3.93;1.80;;;;;;;;;;6309732;22;20365;-87
2023/12/27 13:23:00;;;;;;;2.17;1.40;;;;;;;;;;6309027;22;20367;-89
2023/12/27 13:25:26;;;;;;;3.20;1.70;;;;;;;;;;6284343;22;20424;-88
2023/12/27 13:27:52;;;;;;;4.63;1.90;;;;;;;;;;6283906;22;20381;-88
2023/12/27 13:30:18;;;;;;;2.00;1.50;;;;;;;;;;6281968;22;20368;-89
2023/12/27 13:32:44;;;;;;;2.77;1.60;;;;;;;;;;6307026;22;20368;-88
2023/12/27 13:35:10;;;;;;;1.40;1.30;;;;;;;;;;6309420;22;20380;-87
2023/12/27 13:37:36;;;;;;;3.83;1.80;;;;;;;;;;6282932;22;20701;-87
2023/12/27 13:40:03;;;;;;;2.13;1.77;;;;;;;;;;6284707;22;20455;-88
2023/12/27 13:42:30;;;;;;;2.97;1.97;;;;;;;;;;6284017;22;20871;-88
2023/12/27 13:44:56;;;;;;;5.83;2.10;;;;;;;;;;6283517;22;20481;-88
2023/12/27 13:47:22;;;;;;;3.30;1.90;;;;;;;;;;6283111;22;20411;-88
2023/12/27 13:49:50;;;;;;;2.07;1.87;;;;;;;;;;6306897;22;20819;-87
2023/12/27 13:52:16;;;;;;;1.80;1.60;;;;;;;;;;6284015;22;20407;-88
2023/12/27 13:54:42;;;;;;;7.80;2.47;;;;;;;;;;6282682;22;20863;-88
2023/12/27 13:57:08;;;;;;;2.47;1.67;;;;;;;;;;6284364;22;20377;-88
2023/12/27 13:59:34;;;;;;;2.80;2.50;;;;;;;;;;6283020;22;20410;-88
2023/12/27 14:02:00;;;;;;;5.40;2.20;;;;;;;;;;6285826;22;20376;-90
2023/12/27 14:04:26;;;;;;;5.50;2.27;;;;;;;;;;6283496;22;20770;-89
2023/12/27 14:06:52;;;;;;;5.40;2.50;;;;;;;;;;6284689;22;20391;-88
2023/12/27 14:09:18;;;;;;;13.30;3.17;;;;;;;;;;6283413;22;20710;-88
2023/12/27 14:11:44;;;;;;;2.70;1.70;;;;;;;;;;6308513;22;20368;-87
2023/12/27 14:14:13;;;;;;;6.00;3.17;;;;;;;;;;6283751;22;20445;-87
2023/12/27 14:16:41;;;;;;;2.00;1.50;;;;;;;;;;6282623;22;20380;-88
2023/12/27 14:19:09;;;;;;;3.00;2.37;;;;;;;;;;6282993;22;20377;-87
2023/12/27 14:21:35;;;;;;;3.90;2.40;;;;;;;;;;6282415;22;20430;-88
2023/12/27 14:24:03;;;;;;;3.67;2.60;;;;;;;;;;6282743;22;20423;-87
2023/12/27 14:26:29;;;;;;;3.50;2.20;;;;;;;;;;6284007;22;20422;-88
2023/12/27 14:28:56;;;;;;;2.80;2.27;;;;;;;;;;6282769;22;20388;-88
2023/12/27 14:31:22;;;;;;;2.30;1.60;;;;;;;;;;6283309;22;20760;-88
2023/12/27 14:33:48;;;;;;;5.63;2.37;;;;;;;;;;6283538;22;20385;-87
2023/12/27 14:36:17;;;;;;;7.20;2.90;;;;;;;;;;6283329;22;20433;-88
2023/12/27 14:38:43;;;;;;;4.40;2.00;;;;;;;;;;6309703;22;20419;-89